Durant, Iowa
Current Conditions -  °F | °C
As of 2:52 PM on Thursday 23 Oct 2014 (Local Time) from KDVN Reporting Station
Overcast Overcast  
Wind Chill: 16°   Ceiling: 3400
Heat Index: 16°   Visibility: 10mi
Dew Point:   Wind: 15mph
Humidity: 60%   Direction: 190°S
Pressure: 30.04"   Gusts: NA
Location:  41.6°N, 90.91°W
Report Text: KDVN 231952Z AUTO 19013KT 10SM BKN034 BKN047 OVC110 16/08 A3004 RMK AO2 SLP175 T01560078 TSNO
Loading
Personal Weather Stations






























Interactive Weather Map
Tropical Storm Tracking
New forecast layout! Learn more

10-Day Weather Forecast

Advertisements
Track Severe Weather on mobile